createdAt,value
2017-09-04T00:01:37.996Z,94.60
2017-09-04T00:04:04.301Z,94.50
2017-09-04T00:06:30.624Z,94.60
2017-09-04T00:08:56.959Z,94.60
2017-09-04T00:11:23.260Z,94.80
2017-09-04T00:13:49.600Z,94.70
2017-09-04T00:16:16.092Z,94.70
2017-09-04T00:18:42.617Z,94.60
2017-09-04T00:21:08.956Z,94.70
2017-09-04T00:23:35.260Z,94.70
2017-09-04T00:26:01.544Z,94.80
2017-09-04T00:28:27.905Z,95.00
2017-09-04T00:30:54.263Z,95.20
2017-09-04T00:33:20.575Z,95.10
2017-09-04T00:35:46.859Z,95.10
2017-09-04T00:38:13.130Z,95.10
2017-09-04T00:40:39.484Z,95.10
2017-09-04T00:43:05.935Z,95.10
2017-09-04T00:45:32.375Z,95.30
2017-09-04T00:47:58.687Z,95.00
2017-09-04T00:50:24.955Z,95.40
2017-09-04T00:52:51.261Z,95.30
2017-09-04T00:55:17.540Z,95.40
2017-09-04T00:57:43.836Z,95.50
2017-09-04T01:00:10.131Z,95.40
2017-09-04T01:02:36.461Z,95.50
2017-09-04T01:05:02.969Z,95.70
2017-09-04T01:07:29.344Z,95.80
2017-09-04T01:09:55.683Z,95.80
2017-09-04T01:12:21.992Z,95.90
2017-09-04T01:14:48.335Z,96.00
2017-09-04T01:17:14.626Z,96.20
2017-09-04T01:19:40.935Z,95.90
2017-09-04T01:22:07.248Z,95.80
2017-09-04T01:24:33.531Z,95.80
2017-09-04T01:26:59.839Z,96.10
2017-09-04T01:29:26.260Z,95.90
2017-09-04T01:31:52.556Z,96.10
2017-09-04T01:34:18.890Z,96.00
2017-09-04T01:36:45.247Z,96.20
2017-09-04T01:39:11.548Z,96.30
2017-09-04T01:41:37.935Z,96.20
2017-09-04T01:44:04.318Z,96.50
2017-09-04T01:46:31.330Z,96.20
2017-09-04T01:48:57.817Z,96.20
2017-09-04T01:51:24.119Z,96.20
2017-09-04T01:53:50.505Z,96.10
2017-09-04T01:56:16.828Z,96.10
2017-09-04T01:58:43.139Z,96.00
2017-09-04T02:01:09.407Z,95.90
2017-09-04T02:03:35.713Z,96.00
2017-09-04T02:06:01.997Z,95.90
2017-09-04T02:08:28.364Z,95.90
2017-09-04T02:10:54.705Z,95.90
2017-09-04T02:13:21.017Z,95.90
2017-09-04T02:15:47.286Z,95.80
2017-09-04T02:18:13.607Z,95.70
2017-09-04T02:20:39.883Z,95.70
2017-09-04T02:23:06.260Z,95.80
2017-09-04T02:25:32.560Z,95.80
2017-09-04T02:27:58.827Z,95.80
2017-09-04T02:30:25.112Z,95.80
2017-09-04T02:32:51.437Z,95.90
2017-09-04T02:35:17.739Z,95.90
2017-09-04T02:37:44.041Z,96.10
2017-09-04T02:40:10.353Z,96.10
2017-09-04T02:42:36.699Z,96.20
2017-09-04T02:45:03.006Z,96.30
2017-09-04T02:47:29.364Z,96.30
2017-09-04T02:49:55.639Z,96.30
2017-09-04T02:52:21.913Z,96.30
2017-09-04T02:54:48.296Z,96.30
2017-09-04T02:57:14.612Z,96.40
2017-09-04T02:59:40.907Z,96.30
2017-09-04T03:02:07.168Z,96.30
2017-09-04T03:04:33.617Z,96.40
2017-09-04T03:06:59.943Z,96.30
2017-09-04T03:09:26.296Z,96.30
2017-09-04T03:11:52.640Z,96.40
2017-09-04T03:14:18.987Z,96.50
2017-09-04T03:16:45.345Z,96.50
2017-09-04T03:19:11.680Z,96.50
2017-09-04T03:21:38.006Z,96.50
2017-09-04T03:24:04.291Z,96.50
2017-09-04T03:26:30.574Z,96.60
2017-09-04T03:28:56.895Z,96.70
2017-09-04T03:31:23.195Z,97.20
2017-09-04T03:33:49.487Z,96.70
2017-09-04T03:36:15.812Z,96.70
2017-09-04T03:38:42.165Z,96.50
2017-09-04T03:41:08.468Z,96.40
2017-09-04T03:43:34.760Z,96.40
2017-09-04T03:46:01.051Z,96.10
2017-09-04T03:48:27.303Z,95.70
2017-09-04T03:50:53.584Z,95.80
2017-09-04T03:53:19.856Z,95.70
2017-09-04T03:55:46.232Z,96.30
2017-09-04T03:58:12.560Z,95.90
2017-09-04T04:00:38.868Z,96.00
2017-09-04T04:03:05.204Z,95.80
2017-09-04T04:05:31.495Z,95.90
2017-09-04T04:07:57.843Z,96.10
2017-09-04T04:10:24.240Z,96.00
2017-09-04T04:12:50.583Z,96.00
2017-09-04T04:15:16.928Z,95.80
2017-09-04T04:17:43.215Z,95.70
2017-09-04T04:20:09.531Z,95.40
2017-09-04T04:22:35.819Z,95.40
2017-09-04T04:25:02.123Z,95.50
2017-09-04T04:27:28.469Z,95.40
2017-09-04T04:29:54.753Z,95.40
2017-09-04T04:32:21.019Z,95.30
2017-09-04T04:34:47.339Z,95.40
2017-09-04T04:37:13.632Z,95.50
2017-09-04T04:39:39.964Z,95.50
2017-09-04T04:42:06.248Z,95.40
2017-09-04T04:44:32.536Z,95.40
2017-09-04T04:46:58.835Z,95.40
2017-09-04T04:49:25.183Z,95.30
2017-09-04T04:51:51.533Z,95.20
2017-09-04T04:54:17.828Z,95.10
2017-09-04T04:56:44.114Z,94.80
2017-09-04T04:59:10.425Z,94.40
2017-09-04T05:01:36.740Z,94.20
2017-09-04T05:04:03.076Z,93.80
2017-09-04T05:06:29.360Z,93.60
2017-09-04T05:08:55.681Z,93.30
2017-09-04T05:11:21.989Z,93.10
2017-09-04T05:13:48.324Z,92.60
2017-09-04T05:16:14.611Z,92.30
2017-09-04T05:18:40.892Z,91.90
2017-09-04T05:21:07.202Z,91.70
2017-09-04T05:23:33.511Z,91.30
2017-09-04T05:26:00.097Z,91.00
2017-09-04T05:28:26.379Z,90.50
2017-09-04T05:30:53.056Z,90.10
2017-09-04T05:33:19.344Z,89.70
2017-09-04T05:35:45.639Z,86.30
2017-09-04T05:38:11.926Z,80.80
2017-09-04T05:40:38.197Z,74.70
2017-09-04T05:43:04.547Z,68.50
2017-09-04T05:45:30.888Z,63.20
2017-09-04T05:47:57.171Z,58.40
2017-09-04T05:50:23.459Z,55.60
2017-09-04T05:52:49.828Z,54.10
2017-09-04T05:55:16.125Z,53.20
2017-09-04T05:57:42.466Z,52.90
2017-09-04T06:00:08.813Z,51.20
2017-09-04T06:02:35.088Z,48.70
2017-09-04T06:05:01.384Z,46.10
2017-09-04T06:07:27.700Z,44.20
2017-09-04T06:09:54.084Z,43.70
2017-09-04T06:12:20.420Z,43.60
2017-09-04T06:14:46.763Z,43.40
2017-09-04T06:17:13.056Z,43.00
2017-09-04T06:19:39.352Z,41.30
2017-09-04T06:22:05.676Z,39.50
2017-09-04T06:24:32.067Z,38.40
2017-09-04T06:26:58.344Z,38.50
2017-09-04T06:29:24.753Z,37.20
2017-09-04T06:31:51.021Z,35.80
2017-09-04T06:34:17.281Z,34.80
2017-09-04T06:36:43.607Z,33.90
2017-09-04T06:39:09.961Z,33.80
2017-09-04T06:41:36.285Z,34.80
2017-09-04T06:44:02.687Z,35.30
2017-09-04T06:46:28.990Z,35.10
2017-09-04T06:48:55.300Z,35.20
2017-09-04T06:51:21.567Z,34.10
2017-09-04T06:53:47.895Z,32.50
2017-09-04T06:56:14.172Z,31.20
2017-09-04T06:58:40.518Z,30.50
2017-09-04T07:01:06.851Z,29.50
2017-09-04T07:03:33.219Z,28.30
2017-09-04T07:05:59.527Z,26.80
2017-09-04T07:08:25.939Z,25.80
2017-09-04T07:10:52.293Z,26.20
2017-09-04T07:13:18.583Z,25.70
2017-09-04T07:15:44.905Z,25.20
2017-09-04T07:18:11.200Z,25.00
2017-09-04T07:20:37.492Z,24.40
2017-09-04T07:23:03.785Z,23.60
2017-09-04T07:25:30.059Z,22.80
2017-09-04T07:27:56.379Z,22.60
2017-09-04T07:30:22.711Z,23.00
2017-09-04T07:32:48.987Z,23.80
2017-09-04T07:35:15.301Z,24.90
2017-09-04T07:37:41.609Z,25.40
2017-09-04T07:40:07.972Z,25.40
2017-09-04T07:42:34.325Z,25.20
2017-09-04T07:45:00.608Z,25.00
2017-09-04T07:47:26.952Z,25.30
2017-09-04T07:49:53.268Z,24.90
2017-09-04T07:52:19.600Z,24.20
2017-09-04T07:54:45.947Z,23.60
2017-09-04T07:57:12.321Z,23.40
2017-09-04T07:59:38.607Z,22.40
2017-09-04T08:02:04.928Z,21.70
2017-09-04T08:04:31.259Z,21.90
2017-09-04T08:06:57.531Z,22.40
2017-09-04T08:09:23.880Z,23.30
2017-09-04T08:11:50.310Z,23.40
2017-09-04T08:14:16.687Z,22.30
2017-09-04T08:16:43.128Z,21.30
2017-09-04T08:19:09.516Z,20.20
2017-09-04T08:21:35.848Z,19.30
2017-09-04T08:24:02.127Z,19.00
2017-09-04T08:26:28.440Z,18.40
2017-09-04T08:28:54.720Z,19.10
2017-09-04T08:31:21.083Z,19.40
2017-09-04T08:33:47.476Z,19.40
2017-09-04T08:36:13.840Z,18.80
2017-09-04T08:38:40.202Z,18.60
2017-09-04T08:41:06.698Z,18.80
2017-09-04T08:43:32.992Z,18.20
2017-09-04T08:45:59.289Z,17.70
2017-09-04T08:48:25.587Z,17.00
2017-09-04T08:50:52.691Z,18.30
2017-09-04T08:53:18.980Z,18.20
2017-09-04T08:55:45.261Z,18.50
2017-09-04T08:58:11.571Z,18.40
2017-09-04T09:00:37.975Z,17.90
2017-09-04T09:03:04.321Z,17.80
2017-09-04T09:05:30.788Z,17.70
2017-09-04T09:07:57.113Z,17.50
2017-09-04T09:10:23.376Z,17.70
2017-09-04T09:12:49.687Z,17.80
2017-09-04T09:15:15.987Z,17.30
2017-09-04T09:17:42.292Z,17.20
2017-09-04T09:20:08.604Z,18.40
2017-09-04T09:22:34.952Z,18.30
2017-09-04T09:25:01.314Z,18.20
2017-09-04T09:27:27.630Z,18.30
2017-09-04T09:29:54.002Z,17.70
2017-09-04T09:32:20.315Z,18.80
2017-09-04T09:34:46.648Z,19.00
2017-09-04T09:37:12.957Z,19.90
2017-09-04T09:39:39.262Z,20.90
2017-09-04T09:42:05.636Z,22.30
2017-09-04T09:44:32.033Z,21.50
2017-09-04T09:46:58.361Z,21.90
2017-09-04T09:49:24.676Z,23.50
2017-09-04T09:51:51.016Z,25.50
2017-09-04T09:54:17.290Z,27.90
2017-09-04T09:56:43.557Z,29.80
2017-09-04T09:59:09.915Z,32.20
2017-09-04T10:01:36.212Z,33.60
2017-09-04T10:04:02.577Z,34.20
2017-09-04T10:06:28.901Z,36.60
2017-09-04T10:08:55.219Z,39.90
2017-09-04T10:11:21.592Z,39.90
2017-09-04T10:13:47.905Z,40.00
2017-09-04T10:16:14.252Z,39.20
2017-09-04T10:18:40.584Z,40.10
2017-09-04T10:21:06.951Z,41.20
2017-09-04T10:23:33.289Z,42.90
2017-09-04T10:25:59.630Z,43.70
2017-09-04T10:28:26.815Z,42.00
2017-09-04T10:30:53.083Z,42.00
2017-09-04T10:33:19.432Z,42.60
2017-09-04T10:35:45.704Z,44.90
2017-09-04T10:38:12.075Z,44.90
2017-09-04T10:40:38.603Z,45.60
2017-09-04T10:43:04.907Z,45.50
2017-09-04T10:45:31.227Z,46.70
2017-09-04T10:47:57.549Z,46.60
2017-09-04T10:50:23.875Z,46.00
2017-09-04T10:52:50.844Z,46.40
2017-09-04T10:55:17.147Z,45.80
2017-09-04T10:57:43.443Z,44.50
2017-09-04T11:00:09.776Z,44.90
2017-09-04T11:02:36.085Z,45.00
2017-09-04T11:05:02.388Z,43.30
2017-09-04T11:07:28.880Z,43.90
2017-09-04T11:09:55.221Z,39.50
2017-09-04T11:12:21.572Z,41.30
2017-09-04T11:14:47.913Z,40.80
2017-09-04T11:17:14.191Z,42.20
2017-09-04T11:19:40.512Z,42.30
2017-09-04T11:22:06.803Z,41.20
2017-09-04T11:24:33.160Z,41.90
2017-09-04T11:26:59.485Z,42.20
2017-09-04T11:29:25.765Z,41.40
2017-09-04T11:31:52.612Z,40.30
2017-09-04T11:34:18.919Z,41.70
2017-09-04T11:36:45.244Z,42.30
2017-09-04T11:39:11.592Z,40.70
2017-09-04T11:41:37.916Z,40.70
2017-09-04T11:44:04.383Z,41.90
2017-09-04T11:46:30.709Z,42.20
2017-09-04T11:48:57.032Z,41.80
2017-09-04T11:51:23.356Z,41.20
2017-09-04T11:53:49.706Z,41.50
2017-09-04T11:56:16.029Z,41.00
2017-09-04T11:58:42.453Z,41.50
2017-09-04T12:01:08.833Z,42.50
2017-09-04T12:03:35.168Z,42.80
2017-09-04T12:06:01.472Z,41.10
2017-09-04T12:08:28.021Z,41.50
2017-09-04T12:10:54.316Z,41.70
2017-09-04T12:13:20.612Z,41.70
2017-09-04T12:15:46.944Z,42.10
2017-09-04T12:18:13.301Z,41.80
2017-09-04T12:20:39.595Z,44.10
2017-09-04T12:23:05.888Z,44.10
2017-09-04T12:25:32.233Z,44.60
2017-09-04T12:27:58.508Z,42.50
2017-09-04T12:30:24.812Z,43.90
2017-09-04T12:32:51.124Z,42.70
2017-09-04T12:35:17.514Z,42.30
2017-09-04T12:37:43.824Z,42.00
2017-09-04T12:40:10.283Z,41.00
2017-09-04T12:42:36.589Z,42.40
2017-09-04T12:45:02.902Z,42.80
2017-09-04T12:47:29.215Z,42.90
2017-09-04T12:49:55.517Z,41.30
2017-09-04T12:52:21.855Z,41.90
2017-09-04T12:54:48.166Z,41.70
2017-09-04T12:57:14.597Z,41.10
2017-09-04T12:59:40.928Z,39.60
2017-09-04T13:02:07.207Z,41.40
2017-09-04T13:04:33.503Z,39.90
2017-09-04T13:06:59.764Z,40.00
2017-09-04T13:09:26.185Z,39.10
2017-09-04T13:11:52.500Z,40.30
2017-09-04T13:14:24.924Z,39.90
2017-09-04T13:20:13.007Z,39.00
2017-09-04T13:22:45.343Z,38.80
2017-09-04T13:25:17.765Z,38.60
2017-09-04T13:30:56.723Z,39.50
2017-09-04T13:33:29.273Z,41.00
2017-09-04T13:39:01.632Z,40.20
2017-09-04T13:41:33.884Z,39.90
2017-09-04T13:44:06.369Z,41.10
2017-09-04T13:46:38.628Z,39.30
2017-09-04T13:49:11.189Z,39.90
2017-09-04T13:51:43.711Z,39.60
2017-09-04T13:54:16.181Z,39.20
2017-09-04T13:56:43.432Z,38.10
2017-09-04T13:59:15.924Z,38.60
2017-09-04T14:01:48.188Z,38.00
2017-09-04T14:07:26.188Z,37.00
2017-09-04T14:09:58.588Z,36.30
2017-09-04T14:12:29.957Z,35.80
2017-09-04T14:15:05.428Z,36.60
2017-09-04T14:17:37.854Z,37.20
2017-09-04T14:20:04.187Z,37.60
2017-09-04T14:22:30.614Z,37.40
2017-09-04T14:24:56.885Z,38.10
2017-09-04T14:27:23.210Z,37.80
2017-09-04T14:29:49.538Z,37.90
2017-09-04T14:32:15.858Z,38.20
2017-09-04T14:34:42.184Z,38.00
2017-09-04T14:37:08.524Z,37.20
2017-09-04T14:39:34.832Z,37.10
2017-09-04T14:42:01.184Z,37.60
2017-09-04T14:44:29.495Z,38.20
2017-09-04T14:46:55.871Z,39.00
2017-09-04T14:49:22.152Z,39.60
2017-09-04T14:51:48.665Z,38.80
2017-09-04T14:54:14.992Z,39.30
2017-09-04T14:56:41.344Z,38.00
2017-09-04T14:59:07.647Z,37.80
2017-09-04T15:01:33.971Z,38.50
2017-09-04T15:04:00.316Z,38.20
2017-09-04T15:06:26.655Z,37.50
2017-09-04T15:08:52.937Z,37.90
2017-09-04T15:11:19.276Z,38.70
2017-09-04T15:13:45.731Z,39.00
2017-09-04T15:16:12.047Z,38.80
2017-09-04T15:18:38.399Z,38.50
2017-09-04T15:21:04.746Z,38.20
2017-09-04T15:23:31.124Z,36.90
2017-09-04T15:25:57.440Z,37.20
2017-09-04T15:28:23.745Z,37.00
2017-09-04T15:30:50.119Z,37.20
2017-09-04T15:33:16.436Z,38.70
2017-09-04T15:35:42.773Z,37.50
2017-09-04T15:38:09.109Z,36.60
2017-09-04T15:40:35.380Z,36.90
2017-09-04T15:43:01.716Z,37.00
2017-09-04T15:45:27.991Z,36.90
2017-09-04T15:47:54.312Z,37.90
2017-09-04T15:50:20.679Z,37.70
2017-09-04T15:52:46.967Z,38.10
2017-09-04T15:55:13.284Z,37.70
2017-09-04T15:57:39.633Z,38.20
2017-09-04T16:00:05.980Z,38.00
2017-09-04T16:02:32.303Z,38.10
2017-09-04T16:04:58.611Z,39.40
2017-09-04T16:07:27.744Z,39.90
2017-09-04T16:09:54.033Z,40.40
2017-09-04T16:15:30.601Z,42.00
2017-09-04T16:17:56.956Z,43.70
2017-09-04T16:20:26.152Z,44.40
2017-09-04T16:22:53.519Z,44.80
2017-09-04T16:25:20.943Z,45.40
2017-09-04T16:27:50.104Z,45.10
2017-09-04T16:30:22.536Z,46.40
2017-09-04T16:32:49.873Z,46.20
2017-09-04T16:48:58.376Z,49.60
2017-09-04T16:51:26.816Z,50.20
2017-09-04T16:53:53.221Z,51.00
2017-09-04T16:59:19.299Z,51.70
2017-09-04T17:01:45.646Z,52.00
2017-09-04T17:04:12.059Z,52.00
2017-09-04T17:06:38.550Z,52.30
2017-09-04T17:09:07.168Z,51.50
2017-09-04T17:11:33.907Z,51.70
2017-09-04T17:14:00.369Z,51.50
2017-09-04T17:16:27.042Z,51.70
2017-09-04T17:18:54.188Z,51.40
2017-09-04T17:21:24.377Z,51.90
2017-09-04T17:23:50.748Z,51.70
2017-09-04T17:26:17.081Z,52.00
2017-09-04T17:28:43.408Z,52.40
2017-09-04T17:31:09.749Z,52.60
2017-09-04T17:33:36.055Z,52.70
2017-09-04T17:36:02.396Z,53.00
2017-09-04T17:38:28.742Z,53.50
2017-09-04T17:40:55.075Z,53.40
2017-09-04T17:43:21.392Z,53.80
2017-09-04T17:45:47.715Z,53.60
2017-09-04T17:48:14.855Z,54.10
2017-09-04T17:50:41.175Z,54.10
2017-09-04T17:53:07.509Z,54.20
2017-09-04T17:55:33.792Z,54.60
2017-09-04T17:58:00.165Z,54.80
2017-09-04T18:00:26.645Z,55.20
2017-09-04T18:02:52.984Z,55.30
2017-09-04T18:05:19.308Z,55.50
2017-09-04T18:07:45.663Z,56.30
2017-09-04T18:10:12.005Z,56.30
2017-09-04T18:12:38.296Z,56.40
2017-09-04T18:15:04.663Z,56.60
2017-09-04T18:17:31.047Z,56.90
2017-09-04T18:19:57.411Z,57.30
2017-09-04T18:22:23.726Z,57.30
2017-09-04T18:24:50.074Z,57.20
2017-09-04T18:27:16.377Z,57.20
2017-09-04T18:29:42.724Z,57.10
2017-09-04T18:32:09.035Z,57.20
2017-09-04T18:34:35.382Z,57.30
2017-09-04T18:37:01.903Z,57.40
2017-09-04T18:39:28.214Z,57.50
2017-09-04T18:41:54.534Z,57.50
2017-09-04T18:44:20.864Z,57.40
2017-09-04T18:46:47.963Z,57.60
2017-09-04T18:49:14.340Z,57.70
2017-09-04T18:51:40.692Z,57.80
2017-09-04T18:54:07.006Z,58.40
2017-09-04T18:56:33.349Z,58.70
2017-09-04T18:58:59.708Z,59.80
2017-09-04T19:01:26.026Z,59.20
2017-09-04T19:03:52.345Z,59.60
2017-09-04T19:06:18.690Z,59.60
2017-09-04T19:08:44.988Z,59.70
2017-09-04T19:11:11.324Z,59.90
2017-09-04T19:13:37.711Z,60.40
2017-09-04T19:16:04.076Z,60.70
2017-09-04T19:18:30.388Z,60.90
2017-09-04T19:20:56.732Z,60.90
2017-09-04T19:23:23.020Z,61.10
2017-09-04T19:25:49.371Z,61.90
2017-09-04T19:28:15.757Z,61.20
2017-09-04T19:30:42.270Z,61.30
2017-09-04T19:33:09.317Z,61.80
2017-09-04T19:35:35.700Z,61.80
2017-09-04T19:38:02.091Z,61.60
2017-09-04T19:40:28.427Z,61.50
2017-09-04T19:42:54.851Z,62.00
2017-09-04T19:45:21.204Z,62.10
2017-09-04T19:47:47.504Z,62.40
2017-09-04T19:50:13.851Z,62.20
2017-09-04T19:52:40.187Z,62.40
2017-09-04T19:55:06.511Z,62.00
2017-09-04T19:57:32.842Z,62.10
2017-09-04T19:59:59.237Z,62.20
2017-09-04T20:02:25.552Z,61.90
2017-09-04T20:04:52.678Z,61.70
2017-09-04T20:07:19.052Z,61.70
2017-09-04T20:09:45.382Z,61.60
2017-09-04T20:12:11.728Z,61.60
2017-09-04T20:14:38.064Z,61.00
2017-09-04T20:17:04.398Z,60.70
2017-09-04T20:19:31.447Z,60.50
2017-09-04T20:21:57.769Z,60.50
2017-09-04T20:24:24.056Z,60.00
2017-09-04T20:26:50.503Z,59.50
2017-09-04T20:29:16.845Z,59.20
2017-09-04T20:31:43.188Z,59.20
2017-09-04T20:34:09.619Z,59.00
2017-09-04T20:36:36.008Z,59.70
2017-09-04T20:39:02.404Z,60.00
2017-09-04T20:41:28.849Z,59.60
2017-09-04T20:43:55.185Z,59.70
2017-09-04T20:46:21.522Z,59.60
2017-09-04T20:48:47.820Z,59.50
2017-09-04T20:51:14.180Z,59.20
2017-09-04T20:53:40.521Z,59.10
2017-09-04T20:56:06.861Z,59.80
2017-09-04T20:58:33.312Z,60.20
2017-09-04T21:00:59.605Z,60.90
2017-09-04T21:03:25.931Z,61.90
2017-09-04T21:05:52.338Z,62.40
2017-09-04T21:08:18.712Z,62.30
2017-09-04T21:10:45.063Z,61.80
2017-09-04T21:13:11.343Z,61.70
2017-09-04T21:15:37.745Z,61.70
2017-09-04T21:18:04.114Z,61.90
2017-09-04T21:20:30.537Z,62.00
2017-09-04T21:22:56.992Z,62.40
2017-09-04T21:25:23.346Z,62.60
2017-09-04T21:27:49.666Z,62.80
2017-09-04T21:30:15.972Z,62.60
2017-09-04T21:32:42.481Z,62.80
2017-09-04T21:35:09.528Z,62.30
2017-09-04T21:37:37.204Z,62.50
2017-09-04T21:40:03.541Z,62.50
2017-09-04T21:42:29.860Z,62.90
2017-09-04T21:44:56.319Z,63.20
2017-09-04T21:47:22.687Z,62.90
2017-09-04T21:49:49.189Z,63.30
2017-09-04T21:52:15.468Z,63.50
2017-09-04T21:54:41.772Z,63.50
2017-09-04T21:57:08.088Z,64.40
2017-09-04T21:59:34.503Z,64.10
2017-09-04T22:02:00.807Z,64.50
2017-09-04T22:04:27.093Z,64.90
2017-09-04T22:06:53.390Z,65.80
2017-09-04T22:09:19.657Z,65.60
2017-09-04T22:11:46.049Z,66.30
2017-09-04T22:14:12.336Z,66.70
2017-09-04T22:16:38.668Z,66.70
2017-09-04T22:19:04.982Z,67.10
2017-09-04T22:21:31.285Z,68.10
2017-09-04T22:23:57.604Z,67.80
2017-09-04T22:26:23.884Z,68.00
2017-09-04T22:28:50.227Z,68.20
2017-09-04T22:31:16.561Z,68.20
2017-09-04T22:33:42.875Z,68.40
2017-09-04T22:36:09.213Z,68.40
2017-09-04T22:38:35.596Z,68.80
2017-09-04T22:41:02.109Z,68.70
2017-09-04T22:43:28.420Z,69.00
2017-09-04T22:45:54.736Z,69.10
2017-09-04T22:48:21.053Z,69.10
2017-09-04T22:50:47.345Z,69.90
2017-09-04T22:53:13.669Z,69.80
2017-09-04T22:55:40.021Z,69.30
2017-09-04T22:58:06.337Z,69.70
2017-09-04T23:00:32.796Z,70.10
2017-09-04T23:02:59.135Z,70.10
2017-09-04T23:05:26.182Z,70.00
2017-09-04T23:07:52.576Z,69.30
2017-09-04T23:10:19.132Z,70.00
2017-09-04T23:12:45.404Z,70.30
2017-09-04T23:15:11.664Z,70.50
2017-09-04T23:17:38.017Z,70.70
2017-09-04T23:20:04.336Z,70.80
2017-09-04T23:22:30.654Z,71.00
2017-09-04T23:24:57.007Z,71.20
2017-09-04T23:27:23.325Z,71.40
2017-09-04T23:29:49.624Z,71.70
2017-09-04T23:32:15.954Z,71.80
2017-09-04T23:34:42.399Z,71.80
2017-09-04T23:37:08.848Z,71.50
2017-09-04T23:39:35.148Z,71.60
2017-09-04T23:42:01.429Z,71.80
2017-09-04T23:44:27.765Z,72.00
2017-09-04T23:46:54.075Z,72.40
2017-09-04T23:49:20.372Z,72.80
2017-09-04T23:51:47.377Z,72.90
2017-09-04T23:54:13.676Z,72.70
2017-09-04T23:56:39.996Z,72.20
2017-09-04T23:59:06.341Z,72.50
